TimePST,TemperatureF,Dew PointF,Humidity,Sea Level PressureIn,VisibilityMPH,Wind Direction,Wind SpeedMPH,Gust SpeedMPH,PrecipitationIn,Events,Conditions,WindDirDegrees,DateUTC
12:08 AM,42.8,39.2,87,29.92,10.0,SSW,8.1,-,N/A,,Mostly Cloudy,200,2013-11-03 07:08:00
12:18 AM,42.8,39.2,87,29.92,10.0,SSW,8.1,-,N/A,,Scattered Clouds,200,2013-11-03 07:18:00
12:33 AM,42.8,39.2,87,29.92,10.0,SSW,8.1,-,N/A,,Mostly Cloudy,200,2013-11-03 07:33:00
12:58 AM,43.5,39.9,87,29.95,10.0,SSW,10.4,-,N/A,,Overcast,210,2013-11-03 07:58:00
1:48 AM,42.8,39.2,87,29.95,10.0,South,9.2,-,N/A,,Scattered Clouds,190,2013-11-03 08:48:00
1:58 AM,42.4,39.9,91,29.97,10.0,South,9.2,-,N/A,,Partly Cloudy,190,2013-11-03 08:58:00
1:58 AM,37.6,37.4,99,29.99,10.0,South,8.1,-,N/A,,Clear,190,2013-11-03 09:58:00
2:58 AM,37.8,37.6,99,30.00,10.0,SSE,3.5,-,N/A,,Clear,160,2013-11-03 10:58:00
3:33 AM,39.2,37.4,93,29.99,10.0,SE,4.6,-,N/A,,Mostly Cloudy,130,2013-11-03 11:33:00
3:53 AM,37.4,37.4,100,29.99,10.0,SE,5.8,-,N/A,,Scattered Clouds,130,2013-11-03 11:53:00
3:58 AM,37.8,37.4,99,30.01,10.0,SSE,5.8,-,N/A,,Scattered Clouds,150,2013-11-03 11:58:00
8:23 AM,41.0,41.0,100,30.04,10.0,South,8.1,-,N/A,,Scattered Clouds,180,2013-11-03 16:23:00
8:48 AM,44.6,42.8,93,30.05,10.0,South,10.4,-,N/A,,Mostly Cloudy,180,2013-11-03 16:48:00
8:58 AM,44.6,42.6,93,30.07,10.0,South,9.2,-,N/A,,Mostly Cloudy,190,2013-11-03 16:58:00
9:58 AM,46.6,40.8,80,30.07,10.0,SSW,8.1,-,N/A,,Overcast,210,2013-11-03 17:58:00
10:58 AM,47.8,39.7,74,30.08,10.0,WSW,10.4,-,N/A,,Mostly Cloudy,240,2013-11-03 18:58:00
11:08 AM,48.2,39.2,71,30.06,10.0,WSW,10.4,-,N/A,,Mostly Cloudy,240,2013-11-03 19:08:00
11:58 AM,50.2,39.2,66,30.07,10.0,SW,9.2,-,N/A,,Scattered Clouds,230,2013-11-03 19:58:00
12:58 PM,52.2,37.6,58,30.06,10.0,SW,15.0,-,N/A,,Overcast,230,2013-11-03 20:58:00
1:58 PM,51.6,36.3,56,30.07,10.0,WSW,13.8,23.0,N/A,,Overcast,250,2013-11-03 21:58:00
2:58 PM,51.3,37.6,60,30.08,10.0,SSW,6.9,-,N/A,,Partly Cloudy,200,2013-11-03 22:58:00
3:58 PM,48.7,36.7,63,30.08,10.0,SW,8.1,-,N/A,,Clear,220,2013-11-03 23:58:00
4:58 PM,43.0,36.7,78,30.08,10.0,SE,4.6,-,N/A,,Clear,140,2013-11-04 00:58:00
5:58 PM,40.6,36.0,83,30.08,10.0,SW,5.8,-,N/A,,Mostly Cloudy,220,2013-11-04 01:58:00
6:58 PM,38.5,35.2,88,30.10,10.0,South,6.9,-,N/A,,Scattered Clouds,180,2013-11-04 02:58:00
7:58 PM,34.9,34.3,98,30.11,10.0,SSE,4.6,-,N/A,,Clear,150,2013-11-04 03:58:00
8:58 PM,32.4,32.0,99,30.11,10.0,SSE,3.5,-,N/A,,Clear,160,2013-11-04 04:58:00
9:58 PM,34.9,34.7,99,30.13,10.0,SSE,3.5,-,N/A,,Mostly Cloudy,160,2013-11-04 05:58:00
10:58 PM,35.2,35.1,99,30.13,10.0,SE,2.3,-,N/A,,Overcast,140,2013-11-04 06:58:00